sensor_id;sensor_type;location;lat;lon;timestamp;P1;durP1;ratioP1;P2;durP2;ratioP2
75090;SDS011;63674;48.048;8.306;2023-12-07T00:01:53;13.88;;;5.60;;
75090;SDS011;63674;48.048;8.306;2023-12-07T00:04:21;12.65;;;5.55;;
75090;SDS011;63674;48.048;8.306;2023-12-07T00:06:50;12.32;;;5.53;;
75090;SDS011;63674;48.048;8.306;2023-12-07T00:09:19;12.77;;;5.40;;
75090;SDS011;63674;48.048;8.306;2023-12-07T00:11:47;13.35;;;5.45;;
75090;SDS011;63674;48.048;8.306;2023-12-07T00:14:17;14.02;;;6.40;;
75090;SDS011;63674;48.048;8.306;2023-12-07T00:16:46;13.18;;;5.80;;
75090;SDS011;63674;48.048;8.306;2023-12-07T00:19:15;13.43;;;6.07;;
75090;SDS011;63674;48.048;8.306;2023-12-07T00:21:44;14.97;;;5.67;;
75090;SDS011;63674;48.048;8.306;2023-12-07T00:24:13;14.18;;;5.80;;
75090;SDS011;63674;48.048;8.306;2023-12-07T00:26:41;13.38;;;6.25;;
75090;SDS011;63674;48.048;8.306;2023-12-07T00:29:10;13.50;;;6.05;;
75090;SDS011;63674;48.048;8.306;2023-12-07T00:31:40;14.32;;;5.97;;
75090;SDS011;63674;48.048;8.306;2023-12-07T00:34:08;13.90;;;5.90;;
75090;SDS011;63674;48.048;8.306;2023-12-07T00:36:37;12.55;;;5.70;;
75090;SDS011;63674;48.048;8.306;2023-12-07T00:39:07;13.27;;;5.82;;
75090;SDS011;63674;48.048;8.306;2023-12-07T00:41:36;12.05;;;5.35;;
75090;SDS011;63674;48.048;8.306;2023-12-07T00:44:05;12.73;;;5.82;;
75090;SDS011;63674;48.048;8.306;2023-12-07T00:46:33;13.43;;;6.40;;
75090;SDS011;63674;48.048;8.306;2023-12-07T00:49:03;13.27;;;5.63;;
75090;SDS011;63674;48.048;8.306;2023-12-07T00:51:32;13.70;;;6.53;;
75090;SDS011;63674;48.048;8.306;2023-12-07T00:54:00;16.58;;;5.78;;
75090;SDS011;63674;48.048;8.306;2023-12-07T00:56:29;12.75;;;5.82;;
75090;SDS011;63674;48.048;8.306;2023-12-07T00:58:58;13.17;;;5.77;;
75090;SDS011;63674;48.048;8.306;2023-12-07T01:01:27;15.68;;;6.38;;
75090;SDS011;63674;48.048;8.306;2023-12-07T01:03:56;15.15;;;6.22;;
75090;SDS011;63674;48.048;8.306;2023-12-07T01:06:26;14.93;;;5.97;;
75090;SDS011;63674;48.048;8.306;2023-12-07T01:08:55;15.40;;;6.78;;
75090;SDS011;63674;48.048;8.306;2023-12-07T01:11:23;12.93;;;5.93;;
75090;SDS011;63674;48.048;8.306;2023-12-07T01:13:52;13.60;;;5.88;;
75090;SDS011;63674;48.048;8.306;2023-12-07T01:16:21;13.23;;;6.22;;
75090;SDS011;63674;48.048;8.306;2023-12-07T01:18:51;12.32;;;5.63;;
75090;SDS011;63674;48.048;8.306;2023-12-07T01:21:20;15.13;;;6.45;;
75090;SDS011;63674;48.048;8.306;2023-12-07T01:23:50;13.23;;;5.90;;
75090;SDS011;63674;48.048;8.306;2023-12-07T01:26:31;13.68;;;5.50;;
75090;SDS011;63674;48.048;8.306;2023-12-07T01:29:00;13.55;;;5.75;;
75090;SDS011;63674;48.048;8.306;2023-12-07T01:31:29;12.93;;;5.30;;
75090;SDS011;63674;48.048;8.306;2023-12-07T01:33:58;11.80;;;4.95;;
75090;SDS011;63674;48.048;8.306;2023-12-07T01:36:27;11.80;;;5.13;;
75090;SDS011;63674;48.048;8.306;2023-12-07T01:38:57;13.30;;;6.22;;
75090;SDS011;63674;48.048;8.306;2023-12-07T01:41:26;11.45;;;5.70;;
75090;SDS011;63674;48.048;8.306;2023-12-07T01:43:55;11.05;;;5.13;;
75090;SDS011;63674;48.048;8.306;2023-12-07T01:46:23;11.18;;;5.00;;
75090;SDS011;63674;48.048;8.306;2023-12-07T01:48:52;10.87;;;5.40;;
75090;SDS011;63674;48.048;8.306;2023-12-07T01:51:21;12.43;;;4.68;;
75090;SDS011;63674;48.048;8.306;2023-12-07T01:53:50;9.43;;;4.10;;
75090;SDS011;63674;48.048;8.306;2023-12-07T01:56:20;10.13;;;4.43;;
75090;SDS011;63674;48.048;8.306;2023-12-07T01:58:51;10.65;;;4.97;;
75090;SDS011;63674;48.048;8.306;2023-12-07T02:01:20;10.53;;;4.57;;
75090;SDS011;63674;48.048;8.306;2023-12-07T02:03:49;11.02;;;5.07;;
75090;SDS011;63674;48.048;8.306;2023-12-07T02:06:18;10.52;;;4.72;;
75090;SDS011;63674;48.048;8.306;2023-12-07T02:08:46;11.70;;;4.90;;
75090;SDS011;63674;48.048;8.306;2023-12-07T02:11:35;12.50;;;5.38;;
75090;SDS011;63674;48.048;8.306;2023-12-07T02:14:22;10.70;;;4.53;;
75090;SDS011;63674;48.048;8.306;2023-12-07T02:17:11;12.18;;;4.95;;
75090;SDS011;63674;48.048;8.306;2023-12-07T02:20:06;11.18;;;4.53;;
75090;SDS011;63674;48.048;8.306;2023-12-07T02:23:00;9.98;;;4.15;;
75090;SDS011;63674;48.048;8.306;2023-12-07T02:25:51;11.73;;;4.78;;
75090;SDS011;63674;48.048;8.306;2023-12-07T02:28:42;11.90;;;4.63;;
75090;SDS011;63674;48.048;8.306;2023-12-07T02:31:29;12.90;;;4.78;;
75090;SDS011;63674;48.048;8.306;2023-12-07T02:34:17;12.60;;;4.55;;
75090;SDS011;63674;48.048;8.306;2023-12-07T02:37:05;13.80;;;4.90;;
75090;SDS011;63674;48.048;8.306;2023-12-07T02:39:54;12.95;;;4.47;;
75090;SDS011;63674;48.048;8.306;2023-12-07T02:42:42;12.40;;;4.90;;
75090;SDS011;63674;48.048;8.306;2023-12-07T02:45:31;12.38;;;4.60;;
75090;SDS011;63674;48.048;8.306;2023-12-07T02:48:20;10.73;;;4.30;;
75090;SDS011;63674;48.048;8.306;2023-12-07T02:51:07;11.30;;;4.72;;
75090;SDS011;63674;48.048;8.306;2023-12-07T02:53:55;13.38;;;5.20;;
75090;SDS011;63674;48.048;8.306;2023-12-07T02:56:42;11.73;;;4.90;;
75090;SDS011;63674;48.048;8.306;2023-12-07T02:59:29;13.95;;;4.70;;
75090;SDS011;63674;48.048;8.306;2023-12-07T03:02:18;12.35;;;5.07;;
75090;SDS011;63674;48.048;8.306;2023-12-07T03:05:06;11.32;;;4.32;;
75090;SDS011;63674;48.048;8.306;2023-12-07T03:07:53;12.88;;;5.13;;
75090;SDS011;63674;48.048;8.306;2023-12-07T03:10:41;16.67;;;5.33;;
75090;SDS011;63674;48.048;8.306;2023-12-07T03:13:28;14.35;;;5.03;;
75090;SDS011;63674;48.048;8.306;2023-12-07T03:16:16;11.98;;;4.85;;
75090;SDS011;63674;48.048;8.306;2023-12-07T03:19:05;9.90;;;3.53;;
75090;SDS011;63674;48.048;8.306;2023-12-07T03:21:52;11.10;;;4.05;;
75090;SDS011;63674;48.048;8.306;2023-12-07T03:24:40;10.30;;;3.90;;
75090;SDS011;63674;48.048;8.306;2023-12-07T03:27:14;9.70;;;4.00;;
75090;SDS011;63674;48.048;8.306;2023-12-07T03:29:43;9.98;;;4.30;;
75090;SDS011;63674;48.048;8.306;2023-12-07T03:32:12;12.95;;;4.50;;
75090;SDS011;63674;48.048;8.306;2023-12-07T03:34:42;9.93;;;4.07;;
75090;SDS011;63674;48.048;8.306;2023-12-07T03:37:10;12.77;;;4.63;;
75090;SDS011;63674;48.048;8.306;2023-12-07T03:39:39;13.95;;;5.80;;
75090;SDS011;63674;48.048;8.306;2023-12-07T03:42:08;17.13;;;7.13;;
75090;SDS011;63674;48.048;8.306;2023-12-07T03:44:57;15.70;;;6.35;;
75090;SDS011;63674;48.048;8.306;2023-12-07T03:47:26;20.25;;;8.23;;
75090;SDS011;63674;48.048;8.306;2023-12-07T03:49:56;19.40;;;7.20;;
75090;SDS011;63674;48.048;8.306;2023-12-07T03:52:25;14.43;;;5.35;;
75090;SDS011;63674;48.048;8.306;2023-12-07T03:54:54;15.45;;;5.75;;
75090;SDS011;63674;48.048;8.306;2023-12-07T03:57:23;32.60;;;5.38;;
75090;SDS011;63674;48.048;8.306;2023-12-07T03:59:52;40.72;;;4.90;;
75090;SDS011;63674;48.048;8.306;2023-12-07T04:02:40;21.43;;;4.97;;
75090;SDS011;63674;48.048;8.306;2023-12-07T04:05:10;25.38;;;4.22;;
75090;SDS011;63674;48.048;8.306;2023-12-07T04:07:39;18.50;;;4.90;;
75090;SDS011;63674;48.048;8.306;2023-12-07T04:10:08;19.58;;;5.03;;
75090;SDS011;63674;48.048;8.306;2023-12-07T04:12:38;13.55;;;5.03;;
75090;SDS011;63674;48.048;8.306;2023-12-07T04:15:07;14.60;;;4.97;;
75090;SDS011;63674;48.048;8.306;2023-12-07T04:17:36;16.63;;;6.25;;
75090;SDS011;63674;48.048;8.306;2023-12-07T04:20:05;18.55;;;5.18;;
75090;SDS011;63674;48.048;8.306;2023-12-07T04:22:37;14.40;;;5.03;;
75090;SDS011;63674;48.048;8.306;2023-12-07T04:25:06;23.38;;;5.10;;
75090;SDS011;63674;48.048;8.306;2023-12-07T04:27:36;16.03;;;5.17;;
75090;SDS011;63674;48.048;8.306;2023-12-07T04:30:05;15.93;;;3.97;;
75090;SDS011;63674;48.048;8.306;2023-12-07T04:32:35;11.93;;;4.45;;
75090;SDS011;63674;48.048;8.306;2023-12-07T04:35:06;27.38;;;4.85;;
75090;SDS011;63674;48.048;8.306;2023-12-07T04:37:36;19.27;;;3.95;;
75090;SDS011;63674;48.048;8.306;2023-12-07T04:40:06;17.40;;;4.17;;
75090;SDS011;63674;48.048;8.306;2023-12-07T04:42:37;38.63;;;5.00;;
75090;SDS011;63674;48.048;8.306;2023-12-07T04:45:06;25.35;;;4.82;;
75090;SDS011;63674;48.048;8.306;2023-12-07T04:47:35;43.53;;;4.93;;
75090;SDS011;63674;48.048;8.306;2023-12-07T04:50:04;29.17;;;4.80;;
75090;SDS011;63674;48.048;8.306;2023-12-07T04:52:34;19.10;;;4.27;;
75090;SDS011;63674;48.048;8.306;2023-12-07T04:55:05;22.58;;;4.45;;
75090;SDS011;63674;48.048;8.306;2023-12-07T04:57:35;19.40;;;5.47;;
75090;SDS011;63674;48.048;8.306;2023-12-07T05:00:10;86.13;;;6.95;;
75090;SDS011;63674;48.048;8.306;2023-12-07T05:02:40;92.25;;;5.95;;
75090;SDS011;63674;48.048;8.306;2023-12-07T05:05:08;49.63;;;4.90;;
75090;SDS011;63674;48.048;8.306;2023-12-07T05:07:40;72.60;;;5.13;;
75090;SDS011;63674;48.048;8.306;2023-12-07T05:10:08;21.00;;;4.30;;
75090;SDS011;63674;48.048;8.306;2023-12-07T05:12:37;17.00;;;4.15;;
75090;SDS011;63674;48.048;8.306;2023-12-07T05:15:07;53.70;;;6.22;;
75090;SDS011;63674;48.048;8.306;2023-12-07T05:17:36;41.27;;;4.60;;
75090;SDS011;63674;48.048;8.306;2023-12-07T05:20:05;9.85;;;3.90;;
75090;SDS011;63674;48.048;8.306;2023-12-07T05:22:36;11.93;;;4.43;;
75090;SDS011;63674;48.048;8.306;2023-12-07T05:25:06;9.50;;;3.60;;
75090;SDS011;63674;48.048;8.306;2023-12-07T05:27:35;20.20;;;4.65;;
75090;SDS011;63674;48.048;8.306;2023-12-07T05:30:05;9.70;;;3.80;;
75090;SDS011;63674;48.048;8.306;2023-12-07T05:32:35;47.53;;;5.00;;
75090;SDS011;63674;48.048;8.306;2023-12-07T05:35:04;13.65;;;4.47;;
75090;SDS011;63674;48.048;8.306;2023-12-07T05:37:34;29.30;;;5.22;;
75090;SDS011;63674;48.048;8.306;2023-12-07T05:40:04;21.83;;;4.57;;
75090;SDS011;63674;48.048;8.306;2023-12-07T05:42:38;15.70;;;4.00;;
75090;SDS011;63674;48.048;8.306;2023-12-07T05:45:07;14.20;;;4.00;;
75090;SDS011;63674;48.048;8.306;2023-12-07T05:47:37;9.68;;;3.90;;
75090;SDS011;63674;48.048;8.306;2023-12-07T05:50:06;11.18;;;3.80;;
75090;SDS011;63674;48.048;8.306;2023-12-07T05:52:36;9.93;;;3.65;;
75090;SDS011;63674;48.048;8.306;2023-12-07T05:55:07;10.00;;;3.50;;
75090;SDS011;63674;48.048;8.306;2023-12-07T05:57:35;10.82;;;3.60;;
75090;SDS011;63674;48.048;8.306;2023-12-07T06:00:04;13.25;;;4.30;;
75090;SDS011;63674;48.048;8.306;2023-12-07T06:02:36;11.25;;;3.80;;
75090;SDS011;63674;48.048;8.306;2023-12-07T06:05:04;13.30;;;4.55;;
75090;SDS011;63674;48.048;8.306;2023-12-07T06:07:35;12.97;;;4.50;;
75090;SDS011;63674;48.048;8.306;2023-12-07T06:10:04;11.40;;;4.20;;
75090;SDS011;63674;48.048;8.306;2023-12-07T06:12:35;14.32;;;4.70;;
75090;SDS011;63674;48.048;8.306;2023-12-07T06:15:04;13.50;;;4.00;;
75090;SDS011;63674;48.048;8.306;2023-12-07T06:17:34;11.98;;;4.70;;
75090;SDS011;63674;48.048;8.306;2023-12-07T06:20:03;11.30;;;3.97;;
75090;SDS011;63674;48.048;8.306;2023-12-07T06:22:33;10.35;;;3.97;;
75090;SDS011;63674;48.048;8.306;2023-12-07T06:25:02;14.05;;;4.70;;
75090;SDS011;63674;48.048;8.306;2023-12-07T06:27:33;12.77;;;4.65;;
75090;SDS011;63674;48.048;8.306;2023-12-07T06:30:02;23.80;;;4.43;;
75090;SDS011;63674;48.048;8.306;2023-12-07T06:32:33;77.37;;;5.17;;
75090;SDS011;63674;48.048;8.306;2023-12-07T06:35:02;19.77;;;4.45;;
75090;SDS011;63674;48.048;8.306;2023-12-07T06:37:33;11.93;;;3.80;;
75090;SDS011;63674;48.048;8.306;2023-12-07T06:40:02;27.35;;;4.55;;
75090;SDS011;63674;48.048;8.306;2023-12-07T06:42:31;13.38;;;3.63;;
75090;SDS011;63674;48.048;8.306;2023-12-07T06:45:01;17.60;;;3.80;;
75090;SDS011;63674;48.048;8.306;2023-12-07T06:47:32;14.18;;;4.10;;
75090;SDS011;63674;48.048;8.306;2023-12-07T06:50:00;13.77;;;5.10;;
75090;SDS011;63674;48.048;8.306;2023-12-07T06:52:32;12.38;;;4.38;;
75090;SDS011;63674;48.048;8.306;2023-12-07T06:55:01;13.75;;;4.47;;
75090;SDS011;63674;48.048;8.306;2023-12-07T06:57:30;11.97;;;4.33;;
75090;SDS011;63674;48.048;8.306;2023-12-07T07:00:00;12.77;;;4.45;;
75090;SDS011;63674;48.048;8.306;2023-12-07T07:02:32;13.50;;;5.82;;
75090;SDS011;63674;48.048;8.306;2023-12-07T07:05:01;15.93;;;4.97;;
75090;SDS011;63674;48.048;8.306;2023-12-07T07:07:30;15.98;;;5.75;;
75090;SDS011;63674;48.048;8.306;2023-12-07T07:09:59;16.00;;;6.37;;
75090;SDS011;63674;48.048;8.306;2023-12-07T07:12:28;17.25;;;5.88;;
75090;SDS011;63674;48.048;8.306;2023-12-07T07:14:57;17.27;;;5.40;;
75090;SDS011;63674;48.048;8.306;2023-12-07T07:17:27;17.35;;;6.30;;
75090;SDS011;63674;48.048;8.306;2023-12-07T07:19:56;15.60;;;5.70;;
75090;SDS011;63674;48.048;8.306;2023-12-07T07:22:25;15.90;;;6.10;;
75090;SDS011;63674;48.048;8.306;2023-12-07T07:24:53;17.80;;;6.40;;
75090;SDS011;63674;48.048;8.306;2023-12-07T07:27:22;14.90;;;6.20;;
75090;SDS011;63674;48.048;8.306;2023-12-07T07:29:51;15.63;;;5.28;;
75090;SDS011;63674;48.048;8.306;2023-12-07T07:32:21;17.77;;;5.05;;
75090;SDS011;63674;48.048;8.306;2023-12-07T07:34:50;14.93;;;5.00;;
75090;SDS011;63674;48.048;8.306;2023-12-07T07:37:19;16.23;;;5.47;;
75090;SDS011;63674;48.048;8.306;2023-12-07T07:39:48;17.52;;;5.43;;
75090;SDS011;63674;48.048;8.306;2023-12-07T07:42:17;18.98;;;5.88;;
75090;SDS011;63674;48.048;8.306;2023-12-07T07:44:47;13.35;;;5.10;;
75090;SDS011;63674;48.048;8.306;2023-12-07T07:47:15;10.67;;;3.90;;
75090;SDS011;63674;48.048;8.306;2023-12-07T07:49:46;11.90;;;4.70;;
75090;SDS011;63674;48.048;8.306;2023-12-07T07:52:15;13.40;;;5.38;;
75090;SDS011;63674;48.048;8.306;2023-12-07T07:54:44;13.43;;;4.97;;
75090;SDS011;63674;48.048;8.306;2023-12-07T07:57:13;16.10;;;5.80;;
75090;SDS011;63674;48.048;8.306;2023-12-07T07:59:43;11.63;;;4.67;;
75090;SDS011;63674;48.048;8.306;2023-12-07T08:02:12;13.20;;;4.75;;
75090;SDS011;63674;48.048;8.306;2023-12-07T08:04:40;10.30;;;4.30;;
75090;SDS011;63674;48.048;8.306;2023-12-07T08:07:32;11.13;;;3.70;;
75090;SDS011;63674;48.048;8.306;2023-12-07T08:10:01;12.38;;;4.45;;
75090;SDS011;63674;48.048;8.306;2023-12-07T08:12:30;12.33;;;4.17;;
75090;SDS011;63674;48.048;8.306;2023-12-07T08:14:59;12.57;;;4.60;;
75090;SDS011;63674;48.048;8.306;2023-12-07T08:17:27;11.93;;;4.80;;
75090;SDS011;63674;48.048;8.306;2023-12-07T08:19:56;12.35;;;5.28;;
75090;SDS011;63674;48.048;8.306;2023-12-07T08:22:26;13.98;;;5.25;;
75090;SDS011;63674;48.048;8.306;2023-12-07T08:24:56;9.27;;;3.60;;
75090;SDS011;63674;48.048;8.306;2023-12-07T08:27:36;9.65;;;3.67;;
75090;SDS011;63674;48.048;8.306;2023-12-07T08:30:06;9.23;;;4.00;;
75090;SDS011;63674;48.048;8.306;2023-12-07T08:32:36;15.20;;;6.25;;
75090;SDS011;63674;48.048;8.306;2023-12-07T08:35:05;15.27;;;6.70;;
75090;SDS011;63674;48.048;8.306;2023-12-07T08:37:36;19.33;;;7.57;;
75090;SDS011;63674;48.048;8.306;2023-12-07T08:40:08;12.77;;;6.15;;
75090;SDS011;63674;48.048;8.306;2023-12-07T08:42:44;16.23;;;6.72;;
75090;SDS011;63674;48.048;8.306;2023-12-07T08:45:18;15.18;;;6.97;;
75090;SDS011;63674;48.048;8.306;2023-12-07T08:47:46;22.58;;;8.75;;
75090;SDS011;63674;48.048;8.306;2023-12-07T08:50:15;27.80;;;9.17;;
75090;SDS011;63674;48.048;8.306;2023-12-07T08:52:44;21.83;;;8.05;;
75090;SDS011;63674;48.048;8.306;2023-12-07T08:55:23;21.80;;;8.50;;
75090;SDS011;63674;48.048;8.306;2023-12-07T08:57:52;14.93;;;6.93;;
75090;SDS011;63674;48.048;8.306;2023-12-07T09:00:21;18.20;;;7.38;;
75090;SDS011;63674;48.048;8.306;2023-12-07T09:02:52;16.77;;;7.50;;
75090;SDS011;63674;48.048;8.306;2023-12-07T09:05:21;14.73;;;6.68;;
75090;SDS011;63674;48.048;8.306;2023-12-07T09:07:49;23.38;;;11.35;;
75090;SDS011;63674;48.048;8.306;2023-12-07T09:10:19;21.80;;;9.00;;
75090;SDS011;63674;48.048;8.306;2023-12-07T09:12:49;15.80;;;7.28;;
75090;SDS011;63674;48.048;8.306;2023-12-07T09:15:18;17.40;;;8.43;;
75090;SDS011;63674;48.048;8.306;2023-12-07T09:17:48;18.35;;;8.32;;
75090;SDS011;63674;48.048;8.306;2023-12-07T09:20:16;22.13;;;10.35;;
75090;SDS011;63674;48.048;8.306;2023-12-07T09:22:47;27.42;;;11.80;;
75090;SDS011;63674;48.048;8.306;2023-12-07T09:25:16;31.30;;;14.15;;
75090;SDS011;63674;48.048;8.306;2023-12-07T09:27:45;30.93;;;14.00;;
75090;SDS011;63674;48.048;8.306;2023-12-07T09:30:16;41.83;;;14.18;;
75090;SDS011;63674;48.048;8.306;2023-12-07T09:32:45;48.50;;;17.95;;
75090;SDS011;63674;48.048;8.306;2023-12-07T09:35:13;55.90;;;19.85;;
75090;SDS011;63674;48.048;8.306;2023-12-07T09:37:47;61.53;;;23.05;;
75090;SDS011;63674;48.048;8.306;2023-12-07T09:40:17;26.43;;;11.40;;
75090;SDS011;63674;48.048;8.306;2023-12-07T09:42:48;28.33;;;11.40;;
75090;SDS011;63674;48.048;8.306;2023-12-07T09:45:20;40.20;;;20.05;;
75090;SDS011;63674;48.048;8.306;2023-12-07T09:47:51;21.92;;;10.13;;
75090;SDS011;63674;48.048;8.306;2023-12-07T09:50:22;21.98;;;9.20;;
75090;SDS011;63674;48.048;8.306;2023-12-07T09:52:54;20.53;;;9.07;;
75090;SDS011;63674;48.048;8.306;2023-12-07T09:55:27;23.10;;;10.15;;
75090;SDS011;63674;48.048;8.306;2023-12-07T09:57:57;22.00;;;9.77;;
75090;SDS011;63674;48.048;8.306;2023-12-07T10:00:28;21.65;;;9.80;;
75090;SDS011;63674;48.048;8.306;2023-12-07T10:02:56;23.90;;;10.75;;
75090;SDS011;63674;48.048;8.306;2023-12-07T10:05:25;22.20;;;9.93;;
75090;SDS011;63674;48.048;8.306;2023-12-07T10:07:54;24.70;;;9.85;;
75090;SDS011;63674;48.048;8.306;2023-12-07T10:10:23;25.38;;;10.25;;
75090;SDS011;63674;48.048;8.306;2023-12-07T10:12:54;20.88;;;9.27;;
75090;SDS011;63674;48.048;8.306;2023-12-07T10:15:24;18.30;;;8.68;;
75090;SDS011;63674;48.048;8.306;2023-12-07T10:17:56;22.30;;;10.00;;
75090;SDS011;63674;48.048;8.306;2023-12-07T10:20:27;20.25;;;9.18;;
75090;SDS011;63674;48.048;8.306;2023-12-07T10:23:00;22.60;;;9.55;;
75090;SDS011;63674;48.048;8.306;2023-12-07T10:25:30;17.35;;;7.93;;
75090;SDS011;63674;48.048;8.306;2023-12-07T10:28:00;19.88;;;8.60;;
75090;SDS011;63674;48.048;8.306;2023-12-07T10:30:33;28.43;;;13.80;;
75090;SDS011;63674;48.048;8.306;2023-12-07T10:33:06;19.02;;;9.00;;
75090;SDS011;63674;48.048;8.306;2023-12-07T10:35:38;18.58;;;8.48;;
75090;SDS011;63674;48.048;8.306;2023-12-07T10:38:07;18.48;;;8.35;;
75090;SDS011;63674;48.048;8.306;2023-12-07T10:40:38;19.77;;;9.25;;
75090;SDS011;63674;48.048;8.306;2023-12-07T10:43:08;10.73;;;5.00;;
75090;SDS011;63674;48.048;8.306;2023-12-07T10:45:37;10.98;;;4.90;;
75090;SDS011;63674;48.048;8.306;2023-12-07T10:48:11;9.65;;;4.18;;
75090;SDS011;63674;48.048;8.306;2023-12-07T10:50:41;8.32;;;4.07;;
75090;SDS011;63674;48.048;8.306;2023-12-07T10:53:16;9.57;;;4.20;;
75090;SDS011;63674;48.048;8.306;2023-12-07T10:55:52;13.03;;;5.73;;
75090;SDS011;63674;48.048;8.306;2023-12-07T10:58:24;17.38;;;6.82;;
75090;SDS011;63674;48.048;8.306;2023-12-07T11:00:53;12.65;;;6.35;;
75090;SDS011;63674;48.048;8.306;2023-12-07T11:03:24;10.35;;;4.85;;
75090;SDS011;63674;48.048;8.306;2023-12-07T11:05:53;10.20;;;5.47;;
75090;SDS011;63674;48.048;8.306;2023-12-07T11:08:24;13.23;;;6.80;;
75090;SDS011;63674;48.048;8.306;2023-12-07T11:11:02;9.48;;;4.50;;
75090;SDS011;63674;48.048;8.306;2023-12-07T11:13:36;9.27;;;4.32;;
75090;SDS011;63674;48.048;8.306;2023-12-07T11:16:06;8.25;;;3.90;;
75090;SDS011;63674;48.048;8.306;2023-12-07T11:18:39;8.90;;;4.88;;
75090;SDS011;63674;48.048;8.306;2023-12-07T11:21:08;7.70;;;4.00;;
75090;SDS011;63674;48.048;8.306;2023-12-07T11:23:38;8.55;;;4.00;;
75090;SDS011;63674;48.048;8.306;2023-12-07T11:26:08;10.02;;;4.97;;
75090;SDS011;63674;48.048;8.306;2023-12-07T11:28:38;9.02;;;4.80;;
75090;SDS011;63674;48.048;8.306;2023-12-07T11:31:07;9.00;;;5.07;;
75090;SDS011;63674;48.048;8.306;2023-12-07T11:33:39;12.47;;;6.90;;
75090;SDS011;63674;48.048;8.306;2023-12-07T11:36:09;9.23;;;4.55;;
75090;SDS011;63674;48.048;8.306;2023-12-07T11:41:54;8.00;;;4.03;;
75090;SDS011;63674;48.048;8.306;2023-12-07T11:44:34;8.25;;;3.97;;
75090;SDS011;63674;48.048;8.306;2023-12-07T11:47:06;7.57;;;3.47;;
75090;SDS011;63674;48.048;8.306;2023-12-07T11:49:37;8.40;;;3.60;;
75090;SDS011;63674;48.048;8.306;2023-12-07T11:52:12;8.25;;;4.30;;
75090;SDS011;63674;48.048;8.306;2023-12-07T11:54:45;9.50;;;4.22;;
75090;SDS011;63674;48.048;8.306;2023-12-07T11:57:15;8.15;;;3.40;;
75090;SDS011;63674;48.048;8.306;2023-12-07T11:59:45;8.43;;;3.50;;
75090;SDS011;63674;48.048;8.306;2023-12-07T12:02:15;8.00;;;3.60;;
75090;SDS011;63674;48.048;8.306;2023-12-07T12:04:45;7.28;;;3.47;;
75090;SDS011;63674;48.048;8.306;2023-12-07T12:07:14;7.85;;;3.33;;
75090;SDS011;63674;48.048;8.306;2023-12-07T12:09:43;8.07;;;4.10;;
75090;SDS011;63674;48.048;8.306;2023-12-07T12:12:12;12.33;;;5.47;;
75090;SDS011;63674;48.048;8.306;2023-12-07T12:14:42;8.45;;;3.83;;
75090;SDS011;63674;48.048;8.306;2023-12-07T12:17:14;8.50;;;3.83;;
75090;SDS011;63674;48.048;8.306;2023-12-07T12:19:45;8.75;;;3.55;;
75090;SDS011;63674;48.048;8.306;2023-12-07T12:22:21;8.32;;;3.50;;
75090;SDS011;63674;48.048;8.306;2023-12-07T12:24:50;8.57;;;4.00;;
75090;SDS011;63674;48.048;8.306;2023-12-07T12:27:18;9.70;;;4.65;;
75090;SDS011;63674;48.048;8.306;2023-12-07T12:29:47;11.65;;;6.20;;
75090;SDS011;63674;48.048;8.306;2023-12-07T12:32:17;11.05;;;5.55;;
75090;SDS011;63674;48.048;8.306;2023-12-07T12:34:51;9.88;;;5.10;;
75090;SDS011;63674;48.048;8.306;2023-12-07T12:37:20;8.60;;;3.00;;
75090;SDS011;63674;48.048;8.306;2023-12-07T12:39:49;7.93;;;3.20;;
75090;SDS011;63674;48.048;8.306;2023-12-07T12:42:18;7.47;;;3.40;;
75090;SDS011;63674;48.048;8.306;2023-12-07T12:44:47;7.63;;;3.55;;
75090;SDS011;63674;48.048;8.306;2023-12-07T12:47:16;8.55;;;4.00;;
75090;SDS011;63674;48.048;8.306;2023-12-07T12:49:44;7.63;;;3.20;;
75090;SDS011;63674;48.048;8.306;2023-12-07T12:52:15;7.00;;;3.50;;
75090;SDS011;63674;48.048;8.306;2023-12-07T12:54:45;8.68;;;3.97;;
75090;SDS011;63674;48.048;8.306;2023-12-07T12:57:16;9.48;;;4.32;;
75090;SDS011;63674;48.048;8.306;2023-12-07T12:59:45;9.13;;;4.60;;
75090;SDS011;63674;48.048;8.306;2023-12-07T13:02:16;8.20;;;3.57;;
75090;SDS011;63674;48.048;8.306;2023-12-07T13:04:45;8.18;;;3.60;;
75090;SDS011;63674;48.048;8.306;2023-12-07T13:07:18;9.75;;;4.00;;
75090;SDS011;63674;48.048;8.306;2023-12-07T13:09:47;7.90;;;3.67;;
75090;SDS011;63674;48.048;8.306;2023-12-07T13:12:16;7.05;;;3.22;;
75090;SDS011;63674;48.048;8.306;2023-12-07T13:14:45;8.03;;;3.07;;
75090;SDS011;63674;48.048;8.306;2023-12-07T13:17:15;9.45;;;4.93;;
75090;SDS011;63674;48.048;8.306;2023-12-07T13:19:44;12.48;;;6.55;;
75090;SDS011;63674;48.048;8.306;2023-12-07T13:22:13;12.10;;;5.35;;
75090;SDS011;63674;48.048;8.306;2023-12-07T13:24:45;10.75;;;4.63;;
75090;SDS011;63674;48.048;8.306;2023-12-07T13:27:16;7.90;;;3.50;;
75090;SDS011;63674;48.048;8.306;2023-12-07T13:29:44;11.35;;;5.70;;
75090;SDS011;63674;48.048;8.306;2023-12-07T13:32:13;10.15;;;5.35;;
75090;SDS011;63674;48.048;8.306;2023-12-07T13:34:42;11.30;;;5.32;;
75090;SDS011;63674;48.048;8.306;2023-12-07T13:37:11;9.18;;;4.30;;
75090;SDS011;63674;48.048;8.306;2023-12-07T13:39:40;9.17;;;3.30;;
75090;SDS011;63674;48.048;8.306;2023-12-07T13:42:11;7.10;;;2.97;;
75090;SDS011;63674;48.048;8.306;2023-12-07T13:44:39;6.53;;;3.15;;
75090;SDS011;63674;48.048;8.306;2023-12-07T13:47:09;10.13;;;4.32;;
75090;SDS011;63674;48.048;8.306;2023-12-07T13:49:38;17.17;;;8.88;;
75090;SDS011;63674;48.048;8.306;2023-12-07T13:52:07;11.47;;;5.33;;
75090;SDS011;63674;48.048;8.306;2023-12-07T13:54:36;11.50;;;5.80;;
75090;SDS011;63674;48.048;8.306;2023-12-07T13:57:07;7.25;;;3.10;;
75090;SDS011;63674;48.048;8.306;2023-12-07T13:59:39;6.93;;;2.92;;
75090;SDS011;63674;48.048;8.306;2023-12-07T14:02:07;6.75;;;2.78;;
75090;SDS011;63674;48.048;8.306;2023-12-07T14:04:36;20.47;;;9.43;;
75090;SDS011;63674;48.048;8.306;2023-12-07T14:07:07;16.88;;;8.35;;
75090;SDS011;63674;48.048;8.306;2023-12-07T14:09:39;21.17;;;10.68;;
75090;SDS011;63674;48.048;8.306;2023-12-07T14:12:23;10.48;;;5.28;;
75090;SDS011;63674;48.048;8.306;2023-12-07T14:14:54;9.32;;;4.63;;
75090;SDS011;63674;48.048;8.306;2023-12-07T14:17:23;7.63;;;3.43;;
75090;SDS011;63674;48.048;8.306;2023-12-07T14:20:03;7.78;;;3.45;;
75090;SDS011;63674;48.048;8.306;2023-12-07T14:22:53;7.22;;;3.00;;
75090;SDS011;63674;48.048;8.306;2023-12-07T14:25:23;6.65;;;2.50;;
75090;SDS011;63674;48.048;8.306;2023-12-07T14:27:52;7.45;;;3.20;;
75090;SDS011;63674;48.048;8.306;2023-12-07T14:30:22;6.47;;;2.83;;
75090;SDS011;63674;48.048;8.306;2023-12-07T14:32:51;7.72;;;3.33;;
75090;SDS011;63674;48.048;8.306;2023-12-07T14:35:20;7.93;;;3.28;;
75090;SDS011;63674;48.048;8.306;2023-12-07T14:37:49;7.63;;;3.13;;
75090;SDS011;63674;48.048;8.306;2023-12-07T14:40:18;10.30;;;4.50;;
75090;SDS011;63674;48.048;8.306;2023-12-07T14:42:46;14.53;;;6.47;;
75090;SDS011;63674;48.048;8.306;2023-12-07T14:45:15;11.02;;;4.68;;
75090;SDS011;63674;48.048;8.306;2023-12-07T14:47:48;10.35;;;4.35;;
75090;SDS011;63674;48.048;8.306;2023-12-07T14:50:18;6.80;;;2.83;;
75090;SDS011;63674;48.048;8.306;2023-12-07T14:52:47;7.55;;;3.13;;
75090;SDS011;63674;48.048;8.306;2023-12-07T14:55:15;6.53;;;2.73;;
75090;SDS011;63674;48.048;8.306;2023-12-07T14:57:45;7.97;;;3.00;;
75090;SDS011;63674;48.048;8.306;2023-12-07T15:00:18;8.48;;;3.63;;
75090;SDS011;63674;48.048;8.306;2023-12-07T15:02:46;18.27;;;6.07;;
75090;SDS011;63674;48.048;8.306;2023-12-07T15:05:17;12.95;;;5.43;;